sensor_id;sensor_type;location;lat;lon;timestamp;pressure;altitude;pressure_sealevel;temperature
63009;BMP280;49099;28.428;-16.488;2022-07-29T00:00:03;98698.59;;;24.85
63009;BMP280;49099;28.428;-16.488;2022-07-29T00:02:31;98702.22;;;24.87
63009;BMP280;49099;28.428;-16.488;2022-07-29T00:04:59;98699.25;;;24.91
63009;BMP280;49099;28.428;-16.488;2022-07-29T00:07:26;98686.03;;;24.93
63009;BMP280;49099;28.428;-16.488;2022-07-29T00:09:53;98680.91;;;24.95
63009;BMP280;49099;28.428;-16.488;2022-07-29T00:12:22;98676.97;;;24.96
63009;BMP280;49099;28.428;-16.488;2022-07-29T00:14:56;98675.75;;;24.97
63009;BMP280;49099;28.428;-16.488;2022-07-29T00:17:24;98689.91;;;24.97
63009;BMP280;49099;28.428;-16.488;2022-07-29T00:19:51;98689.75;;;24.90
63009;BMP280;49099;28.428;-16.488;2022-07-29T00:22:19;98688.19;;;24.76
63009;BMP280;49099;28.428;-16.488;2022-07-29T00:24:48;98689.72;;;24.66
63009;BMP280;49099;28.428;-16.488;2022-07-29T00:27:17;98692.19;;;24.64
63009;BMP280;49099;28.428;-16.488;2022-07-29T00:29:44;98681.97;;;24.62
63009;BMP280;49099;28.428;-16.488;2022-07-29T00:32:11;98684.16;;;24.64
63009;BMP280;49099;28.428;-16.488;2022-07-29T00:34:39;98681.66;;;24.66
63009;BMP280;49099;28.428;-16.488;2022-07-29T00:37:25;98677.47;;;24.70
63009;BMP280;49099;28.428;-16.488;2022-07-29T00:39:52;98674.53;;;24.74
63009;BMP280;49099;28.428;-16.488;2022-07-29T00:42:19;98673.75;;;24.79
63009;BMP280;49099;28.428;-16.488;2022-07-29T00:44:47;98675.91;;;24.80
63009;BMP280;49099;28.428;-16.488;2022-07-29T00:47:14;98670.25;;;24.84
63009;BMP280;49099;28.428;-16.488;2022-07-29T00:49:42;98672.44;;;24.85
63009;BMP280;49099;28.428;-16.488;2022-07-29T00:52:10;98659.72;;;24.86
63009;BMP280;49099;28.428;-16.488;2022-07-29T00:54:40;98654.59;;;24.88
63009;BMP280;49099;28.428;-16.488;2022-07-29T00:57:11;98658.28;;;24.85
63009;BMP280;49099;28.428;-16.488;2022-07-29T00:59:38;98661.53;;;24.78
63009;BMP280;49099;28.428;-16.488;2022-07-29T01:02:06;98660.91;;;24.66
63009;BMP280;49099;28.428;-16.488;2022-07-29T01:04:33;98670.06;;;24.58
63009;BMP280;49099;28.428;-16.488;2022-07-29T01:07:02;98660.28;;;24.55
63009;BMP280;49099;28.428;-16.488;2022-07-29T01:09:32;98656.94;;;24.49
63009;BMP280;49099;28.428;-16.488;2022-07-29T01:12:16;98653.97;;;24.52
63009;BMP280;49099;28.428;-16.488;2022-07-29T01:14:46;98651.25;;;24.58
63009;BMP280;49099;28.428;-16.488;2022-07-29T01:20:38;98646.53;;;24.64
63009;BMP280;49099;28.428;-16.488;2022-07-29T01:31:43;98627.94;;;24.66
63009;BMP280;49099;28.428;-16.488;2022-07-29T01:35:06;98625.50;;;24.68
63009;BMP280;49099;28.428;-16.488;2022-07-29T01:38:13;98632.09;;;24.67
63009;BMP280;49099;28.428;-16.488;2022-07-29T01:40:42;98621.94;;;24.54
63009;BMP280;49099;28.428;-16.488;2022-07-29T01:43:12;98621.09;;;24.46
63009;BMP280;49099;28.428;-16.488;2022-07-29T01:45:56;98618.88;;;24.45
63009;BMP280;49099;28.428;-16.488;2022-07-29T01:48:31;98614.53;;;24.42
63009;BMP280;49099;28.428;-16.488;2022-07-29T01:51:25;98608.69;;;24.38
63009;BMP280;49099;28.428;-16.488;2022-07-29T01:56:47;98599.88;;;24.43
63009;BMP280;49099;28.428;-16.488;2022-07-29T01:59:16;98598.38;;;24.47
63009;BMP280;49099;28.428;-16.488;2022-07-29T02:01:45;98597.88;;;24.49
63009;BMP280;49099;28.428;-16.488;2022-07-29T02:04:15;98588.56;;;24.50
63009;BMP280;49099;28.428;-16.488;2022-07-29T02:06:58;98586.38;;;24.48
63009;BMP280;49099;28.428;-16.488;2022-07-29T02:09:28;98586.91;;;24.47
63009;BMP280;49099;28.428;-16.488;2022-07-29T02:11:57;98597.66;;;24.47
63009;BMP280;49099;28.428;-16.488;2022-07-29T02:14:26;98586.66;;;24.45
63009;BMP280;49099;28.428;-16.488;2022-07-29T02:16:55;98580.13;;;24.40
63009;BMP280;49099;28.428;-16.488;2022-07-29T02:19:26;98589.13;;;24.43
63009;BMP280;49099;28.428;-16.488;2022-07-29T02:21:56;98581.53;;;24.47
63009;BMP280;49099;28.428;-16.488;2022-07-29T02:24:25;98583.19;;;24.50
63009;BMP280;49099;28.428;-16.488;2022-07-29T02:26:55;98578.03;;;24.52
63009;BMP280;49099;28.428;-16.488;2022-07-29T02:29:25;98582.00;;;24.51
63009;BMP280;49099;28.428;-16.488;2022-07-29T02:31:53;98579.78;;;24.49
63009;BMP280;49099;28.428;-16.488;2022-07-29T02:34:21;98577.09;;;24.49
63009;BMP280;49099;28.428;-16.488;2022-07-29T02:36:49;98579.31;;;24.51
63009;BMP280;49099;28.428;-16.488;2022-07-29T02:39:18;98576.81;;;24.53
63009;BMP280;49099;28.428;-16.488;2022-07-29T02:41:50;98560.72;;;24.53
63009;BMP280;49099;28.428;-16.488;2022-07-29T02:44:20;98575.91;;;24.45
63009;BMP280;49099;28.428;-16.488;2022-07-29T02:46:58;98563.63;;;24.31
63009;BMP280;49099;28.428;-16.488;2022-07-29T02:52:58;98562.00;;;24.22
63009;BMP280;49099;28.428;-16.488;2022-07-29T02:55:42;98574.44;;;24.20
63009;BMP280;49099;28.428;-16.488;2022-07-29T03:00:47;98560.59;;;24.16
63009;BMP280;49099;28.428;-16.488;2022-07-29T03:03:17;98565.97;;;24.16
63009;BMP280;49099;28.428;-16.488;2022-07-29T03:05:45;98559.63;;;24.13
63009;BMP280;49099;28.428;-16.488;2022-07-29T03:08:12;98564.03;;;24.11
63009;BMP280;49099;28.428;-16.488;2022-07-29T03:10:44;98571.88;;;24.09
63009;BMP280;49099;28.428;-16.488;2022-07-29T03:13:12;98558.03;;;24.05
63009;BMP280;49099;28.428;-16.488;2022-07-29T03:15:42;98562.66;;;24.04
63009;BMP280;49099;28.428;-16.488;2022-07-29T03:18:11;98556.06;;;24.05
63009;BMP280;49099;28.428;-16.488;2022-07-29T03:20:39;98558.47;;;24.09
63009;BMP280;49099;28.428;-16.488;2022-07-29T03:23:07;98550.88;;;24.13
63009;BMP280;49099;28.428;-16.488;2022-07-29T03:25:35;98545.94;;;24.17
63009;BMP280;49099;28.428;-16.488;2022-07-29T03:28:02;98544.91;;;24.20
63009;BMP280;49099;28.428;-16.488;2022-07-29T03:30:29;98542.22;;;24.20
63009;BMP280;49099;28.428;-16.488;2022-07-29T03:32:57;98546.09;;;24.24
63009;BMP280;49099;28.428;-16.488;2022-07-29T03:35:25;98547.28;;;24.29
63009;BMP280;49099;28.428;-16.488;2022-07-29T03:37:52;98540.72;;;24.30
63009;BMP280;49099;28.428;-16.488;2022-07-29T03:40:35;98544.88;;;24.25
63009;BMP280;49099;28.428;-16.488;2022-07-29T03:43:06;98543.50;;;24.19
63009;BMP280;49099;28.428;-16.488;2022-07-29T03:45:36;98545.94;;;24.17
63009;BMP280;49099;28.428;-16.488;2022-07-29T03:48:08;98547.19;;;24.16
63009;BMP280;49099;28.428;-16.488;2022-07-29T03:50:36;98543.50;;;24.19
63009;BMP280;49099;28.428;-16.488;2022-07-29T03:53:03;98535.91;;;24.17
63009;BMP280;49099;28.428;-16.488;2022-07-29T03:55:37;98543.06;;;24.15
63009;BMP280;49099;28.428;-16.488;2022-07-29T03:58:07;98540.13;;;24.13
63009;BMP280;49099;28.428;-16.488;2022-07-29T04:00:36;98543.13;;;24.04
63009;BMP280;49099;28.428;-16.488;2022-07-29T04:03:04;98545.44;;;23.94
63009;BMP280;49099;28.428;-16.488;2022-07-29T04:05:37;98552.84;;;23.83
63009;BMP280;49099;28.428;-16.488;2022-07-29T04:08:04;98557.50;;;23.77
63009;BMP280;49099;28.428;-16.488;2022-07-29T04:10:32;98553.16;;;23.74
63009;BMP280;49099;28.428;-16.488;2022-07-29T04:13:01;98554.59;;;23.75
63009;BMP280;49099;28.428;-16.488;2022-07-29T04:15:28;98551.16;;;23.80
63009;BMP280;49099;28.428;-16.488;2022-07-29T04:17:57;98555.53;;;23.83
63009;BMP280;49099;28.428;-16.488;2022-07-29T04:20:25;98550.59;;;23.87
63009;BMP280;49099;28.428;-16.488;2022-07-29T04:22:52;98552.06;;;23.88
63009;BMP280;49099;28.428;-16.488;2022-07-29T04:25:20;98544.97;;;23.90
63009;BMP280;49099;28.428;-16.488;2022-07-29T04:27:47;98548.59;;;23.93
63009;BMP280;49099;28.428;-16.488;2022-07-29T04:30:33;98546.88;;;23.95
63009;BMP280;49099;28.428;-16.488;2022-07-29T04:33:04;98554.66;;;23.99
63009;BMP280;49099;28.428;-16.488;2022-07-29T04:35:35;98555.84;;;24.03
63009;BMP280;49099;28.428;-16.488;2022-07-29T04:38:09;98559.91;;;24.10
63009;BMP280;49099;28.428;-16.488;2022-07-29T04:40:42;98552.88;;;24.07
63009;BMP280;49099;28.428;-16.488;2022-07-29T04:43:09;98560.16;;;24.12
63009;BMP280;49099;28.428;-16.488;2022-07-29T04:45:39;98559.16;;;24.15
63009;BMP280;49099;28.428;-16.488;2022-07-29T04:48:06;98558.63;;;24.16
63009;BMP280;49099;28.428;-16.488;2022-07-29T04:50:34;98557.38;;;24.17
63009;BMP280;49099;28.428;-16.488;2022-07-29T04:53:01;98557.38;;;24.17
63009;BMP280;49099;28.428;-16.488;2022-07-29T04:55:28;98566.97;;;24.13
63009;BMP280;49099;28.428;-16.488;2022-07-29T04:57:56;98553.41;;;24.05
63009;BMP280;49099;28.428;-16.488;2022-07-29T05:00:24;98554.09;;;24.06
63009;BMP280;49099;28.428;-16.488;2022-07-29T05:02:59;98554.34;;;24.08
63009;BMP280;49099;28.428;-16.488;2022-07-29T05:05:26;98549.63;;;24.14
63009;BMP280;49099;28.428;-16.488;2022-07-29T05:07:53;98554.22;;;24.19
63009;BMP280;49099;28.428;-16.488;2022-07-29T05:10:22;98549.88;;;24.16
63009;BMP280;49099;28.428;-16.488;2022-07-29T05:12:49;98552.31;;;24.14
63009;BMP280;49099;28.428;-16.488;2022-07-29T05:15:16;98556.91;;;24.19
63009;BMP280;49099;28.428;-16.488;2022-07-29T05:17:44;98557.13;;;24.21
63009;BMP280;49099;28.428;-16.488;2022-07-29T05:20:11;98561.84;;;24.15
63009;BMP280;49099;28.428;-16.488;2022-07-29T05:22:38;98555.00;;;24.14
63009;BMP280;49099;28.428;-16.488;2022-07-29T05:25:06;98561.56;;;24.18
63009;BMP280;49099;28.428;-16.488;2022-07-29T05:27:35;98550.53;;;24.22
63009;BMP280;49099;28.428;-16.488;2022-07-29T05:30:03;98548.31;;;24.26
63009;BMP280;49099;28.428;-16.488;2022-07-29T05:32:31;98551.44;;;24.30
63009;BMP280;49099;28.428;-16.488;2022-07-29T05:34:58;98550.19;;;24.31
63009;BMP280;49099;28.428;-16.488;2022-07-29T05:37:25;98556.56;;;24.28
63009;BMP280;49099;28.428;-16.488;2022-07-29T05:39:53;98552.03;;;24.17
63009;BMP280;49099;28.428;-16.488;2022-07-29T05:42:24;98553.09;;;24.09
63009;BMP280;49099;28.428;-16.488;2022-07-29T05:44:52;98558.97;;;24.07
63009;BMP280;49099;28.428;-16.488;2022-07-29T05:47:19;98555.34;;;24.05
63009;BMP280;49099;28.428;-16.488;2022-07-29T05:49:46;98561.69;;;24.02
63009;BMP280;49099;28.428;-16.488;2022-07-29T05:52:14;98564.44;;;23.96
63009;BMP280;49099;28.428;-16.488;2022-07-29T05:54:41;98552.06;;;23.88
63009;BMP280;49099;28.428;-16.488;2022-07-29T05:57:15;98556.00;;;23.81
63009;BMP280;49099;28.428;-16.488;2022-07-29T05:59:42;98551.44;;;23.71
63009;BMP280;49099;28.428;-16.488;2022-07-29T06:02:09;98555.19;;;23.62
63009;BMP280;49099;28.428;-16.488;2022-07-29T06:04:37;98559.13;;;23.56
63009;BMP280;49099;28.428;-16.488;2022-07-29T06:07:04;98558.22;;;23.48
63009;BMP280;49099;28.428;-16.488;2022-07-29T06:09:32;98563.81;;;23.44
63009;BMP280;49099;28.428;-16.488;2022-07-29T06:12:02;98551.66;;;23.43
63009;BMP280;49099;28.428;-16.488;2022-07-29T06:14:29;98561.91;;;23.39
63009;BMP280;49099;28.428;-16.488;2022-07-29T06:16:56;98556.59;;;23.34
63009;BMP280;49099;28.428;-16.488;2022-07-29T06:19:23;98555.59;;;23.31
63009;BMP280;49099;28.428;-16.488;2022-07-29T06:21:51;98565.09;;;23.38
63009;BMP280;49099;28.428;-16.488;2022-07-29T06:24:18;98561.63;;;23.43
63009;BMP280;49099;28.428;-16.488;2022-07-29T06:26:45;98559.66;;;23.49
63009;BMP280;49099;28.428;-16.488;2022-07-29T06:29:13;98563.78;;;23.55
63009;BMP280;49099;28.428;-16.488;2022-07-29T06:31:40;98565.66;;;23.60
63009;BMP280;49099;28.428;-16.488;2022-07-29T06:34:07;98567.59;;;23.65
63009;BMP280;49099;28.428;-16.488;2022-07-29T06:36:36;98563.91;;;23.68
63009;BMP280;49099;28.428;-16.488;2022-07-29T06:39:06;98566.59;;;23.68
63009;BMP280;49099;28.428;-16.488;2022-07-29T06:41:34;98571.22;;;23.68
63009;BMP280;49099;28.428;-16.488;2022-07-29T06:44:02;98562.22;;;23.65
63009;BMP280;49099;28.428;-16.488;2022-07-29T06:46:31;98571.75;;;23.61
63009;BMP280;49099;28.428;-16.488;2022-07-29T06:48:59;98568.84;;;23.59
63009;BMP280;49099;28.428;-16.488;2022-07-29T06:51:28;98575.44;;;23.58
63009;BMP280;49099;28.428;-16.488;2022-07-29T06:53:56;98571.28;;;23.57
63009;BMP280;49099;28.428;-16.488;2022-07-29T06:56:33;98579.59;;;23.59
63009;BMP280;49099;28.428;-16.488;2022-07-29T06:59:07;98571.03;;;23.60
63009;BMP280;49099;28.428;-16.488;2022-07-29T07:01:36;98574.97;;;23.59
63009;BMP280;49099;28.428;-16.488;2022-07-29T07:04:04;98572.22;;;23.65
63009;BMP280;49099;28.428;-16.488;2022-07-29T07:06:31;98576.38;;;23.66
63009;BMP280;49099;28.428;-16.488;2022-07-29T07:08:59;98567.53;;;23.71
63009;BMP280;49099;28.428;-16.488;2022-07-29T07:11:26;98569.47;;;23.76
63009;BMP280;49099;28.428;-16.488;2022-07-29T07:13:53;98570.19;;;23.76
63009;BMP280;49099;28.428;-16.488;2022-07-29T07:16:28;98572.88;;;23.76
63009;BMP280;49099;28.428;-16.488;2022-07-29T07:18:55;98574.78;;;23.81
63009;BMP280;49099;28.428;-16.488;2022-07-29T07:21:23;98573.53;;;23.88
63009;BMP280;49099;28.428;-16.488;2022-07-29T07:23:50;98570.28;;;23.95
63009;BMP280;49099;28.428;-16.488;2022-07-29T07:26:17;98574.88;;;24.00
63009;BMP280;49099;28.428;-16.488;2022-07-29T07:28:44;98585.34;;;24.03
63009;BMP280;49099;28.428;-16.488;2022-07-29T07:31:11;98589.44;;;24.10
63009;BMP280;49099;28.428;-16.488;2022-07-29T07:33:39;98586.19;;;24.17
63009;BMP280;49099;28.428;-16.488;2022-07-29T07:36:06;98587.19;;;24.19
63009;BMP280;49099;28.428;-16.488;2022-07-29T07:38:33;98585.19;;;24.20
63009;BMP280;49099;28.428;-16.488;2022-07-29T07:41:01;98592.06;;;24.15
63009;BMP280;49099;28.428;-16.488;2022-07-29T07:43:28;98596.25;;;24.11
63009;BMP280;49099;28.428;-16.488;2022-07-29T07:45:55;98588.53;;;24.02
63009;BMP280;49099;28.428;-16.488;2022-07-29T07:48:22;98594.91;;;23.99
63009;BMP280;49099;28.428;-16.488;2022-07-29T07:50:49;98597.59;;;23.99
63009;BMP280;49099;28.428;-16.488;2022-07-29T07:53:17;98605.19;;;23.95
63009;BMP280;49099;28.428;-16.488;2022-07-29T07:55:48;98594.94;;;23.93
63009;BMP280;49099;28.428;-16.488;2022-07-29T07:58:35;98598.13;;;23.92
63009;BMP280;49099;28.428;-16.488;2022-07-29T08:01:03;98601.03;;;23.94
63009;BMP280;49099;28.428;-16.488;2022-07-29T08:03:30;98605.19;;;23.95
63009;BMP280;49099;28.428;-16.488;2022-07-29T08:05:57;98610.00;;;24.02
63009;BMP280;49099;28.428;-16.488;2022-07-29T08:08:24;98601.25;;;23.96
63009;BMP280;49099;28.428;-16.488;2022-07-29T08:10:52;98602.69;;;23.97
63009;BMP280;49099;28.428;-16.488;2022-07-29T08:13:20;98605.34;;;24.02
63009;BMP280;49099;28.428;-16.488;2022-07-29T08:15:48;98604.31;;;24.11
63009;BMP280;49099;28.428;-16.488;2022-07-29T08:18:28;98611.59;;;24.16
63009;BMP280;49099;28.428;-16.488;2022-07-29T08:20:56;98607.69;;;24.17
63009;BMP280;49099;28.428;-16.488;2022-07-29T08:23:24;98613.03;;;24.17
63009;BMP280;49099;28.428;-16.488;2022-07-29T08:26:13;98611.06;;;24.23
63009;BMP280;49099;28.428;-16.488;2022-07-29T08:28:42;98614.16;;;24.27
63009;BMP280;49099;28.428;-16.488;2022-07-29T08:31:16;98609.25;;;24.31
63009;BMP280;49099;28.428;-16.488;2022-07-29T08:33:43;98614.34;;;24.34
63009;BMP280;49099;28.428;-16.488;2022-07-29T08:36:10;98616.72;;;24.43
63009;BMP280;49099;28.428;-16.488;2022-07-29T08:38:39;98618.31;;;24.52
63009;BMP280;49099;28.428;-16.488;2022-07-29T08:41:07;98620.00;;;24.55
63009;BMP280;49099;28.428;-16.488;2022-07-29T08:43:34;98625.34;;;24.60
63009;BMP280;49099;28.428;-16.488;2022-07-29T08:46:04;98621.56;;;24.69
63009;BMP280;49099;28.428;-16.488;2022-07-29T08:48:32;98621.00;;;24.76
63009;BMP280;49099;28.428;-16.488;2022-07-29T08:51:00;98621.66;;;24.82
63009;BMP280;49099;28.428;-16.488;2022-07-29T08:53:30;98627.56;;;24.80
63009;BMP280;49099;28.428;-16.488;2022-07-29T08:55:58;98623.41;;;24.79
63009;BMP280;49099;28.428;-16.488;2022-07-29T08:58:26;98632.84;;;24.67
63009;BMP280;49099;28.428;-16.488;2022-07-29T09:00:56;98633.63;;;24.62
63009;BMP280;49099;28.428;-16.488;2022-07-29T09:03:27;98636.56;;;24.59
63009;BMP280;49099;28.428;-16.488;2022-07-29T09:05:58;98631.88;;;24.65
63009;BMP280;49099;28.428;-16.488;2022-07-29T09:08:25;98631.88;;;24.65
63009;BMP280;49099;28.428;-16.488;2022-07-29T09:10:53;98633.50;;;24.73
63009;BMP280;49099;28.428;-16.488;2022-07-29T09:13:21;98644.88;;;24.85
63009;BMP280;49099;28.428;-16.488;2022-07-29T09:15:48;98637.44;;;24.91
63009;BMP280;49099;28.428;-16.488;2022-07-29T09:18:37;98633.97;;;24.96
63009;BMP280;49099;28.428;-16.488;2022-07-29T09:21:10;98643.19;;;25.00
63009;BMP280;49099;28.428;-16.488;2022-07-29T09:26:30;98631.66;;;25.05
63009;BMP280;49099;28.428;-16.488;2022-07-29T09:28:58;98623.53;;;25.11
63009;BMP280;49099;28.428;-16.488;2022-07-29T09:31:34;98622.72;;;25.16
63009;BMP280;49099;28.428;-16.488;2022-07-29T09:34:02;98628.31;;;25.18
63009;BMP280;49099;28.428;-16.488;2022-07-29T09:36:30;98633.13;;;25.25
63009;BMP280;49099;28.428;-16.488;2022-07-29T09:39:01;98641.84;;;25.31
63009;BMP280;49099;28.428;-16.488;2022-07-29T09:41:29;98639.25;;;25.25
63009;BMP280;49099;28.428;-16.488;2022-07-29T09:43:58;98644.91;;;25.22
63009;BMP280;49099;28.428;-16.488;2022-07-29T09:46:25;98648.91;;;25.15
63009;BMP280;49099;28.428;-16.488;2022-07-29T09:49:09;98649.59;;;25.16
63009;BMP280;49099;28.428;-16.488;2022-07-29T09:51:36;98649.19;;;25.12
63009;BMP280;49099;28.428;-16.488;2022-07-29T09:54:24;98652.00;;;25.01
63009;BMP280;49099;28.428;-16.488;2022-07-29T09:56:53;98654.03;;;24.95
63009;BMP280;49099;28.428;-16.488;2022-07-29T09:59:21;98652.94;;;24.85
63009;BMP280;49099;28.428;-16.488;2022-07-29T10:01:53;98654.94;;;24.79
63009;BMP280;49099;28.428;-16.488;2022-07-29T10:04:21;98658.84;;;24.78
63009;BMP280;49099;28.428;-16.488;2022-07-29T10:07:02;98668.06;;;24.82
63009;BMP280;49099;28.428;-16.488;2022-07-29T10:09:32;98663.22;;;24.81
63009;BMP280;49099;28.428;-16.488;2022-07-29T10:14:34;98667.78;;;24.67
63009;BMP280;49099;28.428;-16.488;2022-07-29T10:17:02;98659.31;;;24.58
63009;BMP280;49099;28.428;-16.488;2022-07-29T10:19:31;98666.66;;;24.52
63009;BMP280;49099;28.428;-16.488;2022-07-29T10:21:59;98665.66;;;24.55
63009;BMP280;49099;28.428;-16.488;2022-07-29T10:24:28;98670.75;;;24.58
63009;BMP280;49099;28.428;-16.488;2022-07-29T10:26:57;98658.72;;;24.65
63009;BMP280;49099;28.428;-16.488;2022-07-29T10:29:25;98660.53;;;24.81
63009;BMP280;49099;28.428;-16.488;2022-07-29T10:43:36;98660.44;;;25.29
63009;BMP280;49099;28.428;-16.488;2022-07-29T10:46:08;98657.19;;;25.36
63009;BMP280;49099;28.428;-16.488;2022-07-29T10:49:15;98659.88;;;25.36
63009;BMP280;49099;28.428;-16.488;2022-07-29T10:51:57;98658.84;;;25.39
63009;BMP280;49099;28.428;-16.488;2022-07-29T10:54:45;98661.75;;;25.41
63009;BMP280;49099;28.428;-16.488;2022-07-29T10:57:21;98667.13;;;25.41
63009;BMP280;49099;28.428;-16.488;2022-07-29T11:00:25;98666.06;;;25.31
63009;BMP280;49099;28.428;-16.488;2022-07-29T11:02:52;98664.22;;;25.39
63009;BMP280;49099;28.428;-16.488;2022-07-29T11:05:22;98658.16;;;25.38
63009;BMP280;49099;28.428;-16.488;2022-07-29T11:10:53;98649.97;;;25.44
63009;BMP280;49099;28.428;-16.488;2022-07-29T11:13:52;98663.78;;;25.53
63009;BMP280;49099;28.428;-16.488;2022-07-29T11:16:22;98654.16;;;25.76
63009;BMP280;49099;28.428;-16.488;2022-07-29T11:21:42;98651.22;;;25.93
63009;BMP280;49099;28.428;-16.488;2022-07-29T11:24:30;98655.72;;;26.04
63009;BMP280;49099;28.428;-16.488;2022-07-29T11:27:10;98656.97;;;26.16
63009;BMP280;49099;28.428;-16.488;2022-07-29T11:29:51;98659.19;;;26.30
63009;BMP280;49099;28.428;-16.488;2022-07-29T11:32:20;98657.53;;;26.40
63009;BMP280;49099;28.428;-16.488;2022-07-29T11:34:57;98656.72;;;26.45
63009;BMP280;49099;28.428;-16.488;2022-07-29T11:46:41;98650.50;;;26.50
63009;BMP280;49099;28.428;-16.488;2022-07-29T11:49:06;98650.31;;;26.48
63009;BMP280;49099;28.428;-16.488;2022-07-29T11:51:39;98660.34;;;26.48
63009;BMP280;49099;28.428;-16.488;2022-07-29T11:54:21;98662.09;;;26.45
63009;BMP280;49099;28.428;-16.488;2022-07-29T11:56:53;98659.00;;;26.54
63009;BMP280;49099;28.428;-16.488;2022-07-29T11:59:20;98658.38;;;26.61
63009;BMP280;49099;28.428;-16.488;2022-07-29T12:01:59;98651.34;;;26.71
63009;BMP280;49099;28.428;-16.488;2022-07-29T12:04:56;98644.47;;;26.83
63009;BMP280;49099;28.428;-16.488;2022-07-29T12:07:33;98648.81;;;26.99
63009;BMP280;49099;28.428;-16.488;2022-07-29T12:10:01;98643.72;;;27.09
63009;BMP280;49099;28.428;-16.488;2022-07-29T12:12:29;98643.34;;;27.25
63009;BMP280;49099;28.428;-16.488;2022-07-29T12:14:56;98646.94;;;27.41
63009;BMP280;49099;28.428;-16.488;2022-07-29T12:17:30;98650.59;;;27.64
63009;BMP280;49099;28.428;-16.488;2022-07-29T12:20:01;98646.78;;;27.80
63009;BMP280;49099;28.428;-16.488;2022-07-29T12:22:38;98633.53;;;27.89
63009;BMP280;49099;28.428;-16.488;2022-07-29T12:25:12;98635.69;;;27.91
63009;BMP280;49099;28.428;-16.488;2022-07-29T12:28:00;98642.56;;;27.92
63009;BMP280;49099;28.428;-16.488;2022-07-29T12:30:48;98652.63;;;27.91
63009;BMP280;49099;28.428;-16.488;2022-07-29T12:33:25;98647.28;;;27.99
63009;BMP280;49099;28.428;-16.488;2022-07-29T12:35:57;98638.34;;;28.04
63009;BMP280;49099;28.428;-16.488;2022-07-29T12:38:40;98640.81;;;28.02
63009;BMP280;49099;28.428;-16.488;2022-07-29T12:41:07;98643.59;;;28.09
63009;BMP280;49099;28.428;-16.488;2022-07-29T12:43:34;98649.44;;;28.21
63009;BMP280;49099;28.428;-16.488;2022-07-29T12:46:13;98652.16;;;28.28
63009;BMP280;49099;28.428;-16.488;2022-07-29T12:48:43;98655.66;;;28.36
63009;BMP280;49099;28.428;-16.488;2022-07-29T12:51:11;98649.75;;;28.45
63009;BMP280;49099;28.428;-16.488;2022-07-29T12:53:41;98660.91;;;28.42
63009;BMP280;49099;28.428;-16.488;2022-07-29T12:56:15;98666.81;;;28.33
63009;BMP280;49099;28.428;-16.488;2022-07-29T12:59:22;98651.81;;;28.24
63009;BMP280;49099;28.428;-16.488;2022-07-29T13:01:51;98656.31;;;28.01
63009;BMP280;49099;28.428;-16.488;2022-07-29T13:04:29;98646.56;;;27.98
63009;BMP280;49099;28.428;-16.488;2022-07-29T13:09:41;98648.69;;;27.92
63009;BMP280;49099;28.428;-16.488;2022-07-29T13:12:10;98648.81;;;27.87
63009;BMP280;49099;28.428;-16.488;2022-07-29T13:14:40;98645.31;;;27.99
63009;BMP280;49099;28.428;-16.488;2022-07-29T13:22:23;98647.13;;;27.76
63009;BMP280;49099;28.428;-16.488;2022-07-29T13:24:55;98635.72;;;27.70
63009;BMP280;49099;28.428;-16.488;2022-07-29T13:27:25;98646.03;;;27.79
63009;BMP280;49099;28.428;-16.488;2022-07-29T13:29:53;98647.41;;;27.93
63009;BMP280;49099;28.428;-16.488;2022-07-29T13:32:25;98637.59;;;28.03
63009;BMP280;49099;28.428;-16.488;2022-07-29T13:34:59;98643.66;;;27.96
63009;BMP280;49099;28.428;-16.488;2022-07-29T13:37:31;98639.59;;;27.82
63009;BMP280;49099;28.428;-16.488;2022-07-29T13:40:02;98638.41;;;27.70
63009;BMP280;49099;28.428;-16.488;2022-07-29T13:42:31;98636.78;;;27.67
63009;BMP280;49099;28.428;-16.488;2022-07-29T13:44:59;98629.38;;;27.68
63009;BMP280;49099;28.428;-16.488;2022-07-29T13:47:26;98630.09;;;27.68
63009;BMP280;49099;28.428;-16.488;2022-07-29T13:50:02;98629.00;;;27.64
63009;BMP280;49099;28.428;-16.488;2022-07-29T13:52:32;98624.34;;;27.64
63009;BMP280;49099;28.428;-16.488;2022-07-29T13:55:00;98627.81;;;27.52
63009;BMP280;49099;28.428;-16.488;2022-07-29T13:57:28;98627.53;;;27.42
63009;BMP280;49099;28.428;-16.488;2022-07-29T13:59:56;98624.38;;;27.31
63009;BMP280;49099;28.428;-16.488;2022-07-29T14:02:23;98624.28;;;27.23
63009;BMP280;49099;28.428;-16.488;2022-07-29T14:04:53;98633.31;;;27.13
63009;BMP280;49099;28.428;-16.488;2022-07-29T14:07:21;98625.19;;;27.05
63009;BMP280;49099;28.428;-16.488;2022-07-29T14:09:48;98629.50;;;27.08
63009;BMP280;49099;28.428;-16.488;2022-07-29T14:12:17;98620.56;;;27.13
63009;BMP280;49099;28.428;-16.488;2022-07-29T14:14:44;98623.16;;;27.19
63009;BMP280;49099;28.428;-16.488;2022-07-29T14:17:13;98622.03;;;27.14
63009;BMP280;49099;28.428;-16.488;2022-07-29T14:19:41;98613.91;;;27.27
63009;BMP280;49099;28.428;-16.488;2022-07-29T14:22:08;98611.00;;;27.25
63009;BMP280;49099;28.428;-16.488;2022-07-29T14:24:36;98618.88;;;27.23
63009;BMP280;49099;28.428;-16.488;2022-07-29T14:27:06;98612.03;;;27.22
63009;BMP280;49099;28.428;-16.488;2022-07-29T14:29:35;98609.59;;;27.11
63009;BMP280;49099;28.428;-16.488;2022-07-29T14:32:08;98605.84;;;27.14
63009;BMP280;49099;28.428;-16.488;2022-07-29T14:34:37;98608.09;;;27.23
63009;BMP280;49099;28.428;-16.488;2022-07-29T14:37:05;98601.25;;;27.22
63009;BMP280;49099;28.428;-16.488;2022-07-29T14:39:34;98608.09;;;27.23
63009;BMP280;49099;28.428;-16.488;2022-07-29T14:42:10;98596.25;;;27.26
63009;BMP280;49099;28.428;-16.488;2022-07-29T14:44:39;98600.28;;;27.33
63009;BMP280;49099;28.428;-16.488;2022-07-29T14:47:07;98598.09;;;27.31
63009;BMP280;49099;28.428;-16.488;2022-07-29T14:49:34;98589.81;;;27.29
63009;BMP280;49099;28.428;-16.488;2022-07-29T14:52:02;98589.03;;;27.21
63009;BMP280;49099;28.428;-16.488;2022-07-29T14:54:29;98595.66;;;27.20
63009;BMP280;49099;28.428;-16.488;2022-07-29T14:56:56;98601.69;;;27.13
63009;BMP280;49099;28.428;-16.488;2022-07-29T14:59:25;98597.78;;;27.01
63009;BMP280;49099;28.428;-16.488;2022-07-29T15:01:52;98594.09;;;26.91
63009;BMP280;49099;28.428;-16.488;2022-07-29T15:04:20;98593.59;;;26.80